createdAt,value
2019-02-21T00:02:19.861Z,22.70
2019-02-21T00:05:01.122Z,30.83
2019-02-21T00:07:42.077Z,23.83
2019-02-21T00:10:23.229Z,28.30
2019-02-21T00:13:03.820Z,26.57
2019-02-21T00:15:44.793Z,30.23
2019-02-21T00:18:25.172Z,26.80
2019-02-21T00:21:05.906Z,29.70
2019-02-21T00:23:46.752Z,25.97
2019-02-21T00:26:27.429Z,26.53
2019-02-21T00:29:08.641Z,31.40
2019-02-21T00:31:49.418Z,28.03
2019-02-21T00:34:30.434Z,33.60
2019-02-21T00:37:11.007Z,31.57
2019-02-21T00:39:51.781Z,28.50
2019-02-21T00:42:32.313Z,28.30
2019-02-21T00:45:12.783Z,26.10
2019-02-21T00:47:53.568Z,29.50
2019-02-21T00:50:34.479Z,25.97
2019-02-21T00:53:14.949Z,28.77
2019-02-21T00:55:55.949Z,26.10
2019-02-21T00:58:36.504Z,30.27
2019-02-21T01:01:17.193Z,30.20
2019-02-21T01:03:58.097Z,27.10
2019-02-21T01:06:38.457Z,30.40
2019-02-21T01:09:18.991Z,35.57
2019-02-21T01:11:59.566Z,31.00
2019-02-21T01:14:40.308Z,35.53
2019-02-21T01:17:20.962Z,29.03
2019-02-21T01:20:01.865Z,28.43
2019-02-21T01:22:42.889Z,36.23
2019-02-21T01:25:23.397Z,38.10
2019-02-21T01:28:03.896Z,27.40
2019-02-21T01:30:44.256Z,30.37
2019-02-21T01:33:24.997Z,23.60
2019-02-21T01:36:05.577Z,26.77
2019-02-21T01:38:46.675Z,29.27
2019-02-21T01:41:27.180Z,26.90
2019-02-21T01:44:07.671Z,28.37
2019-02-21T01:46:48.523Z,23.03
2019-02-21T01:49:29.455Z,27.10
2019-02-21T01:52:10.667Z,25.90
2019-02-21T01:54:51.042Z,26.67
2019-02-21T01:57:31.885Z,26.73
2019-02-21T02:00:12.807Z,26.20
2019-02-21T02:02:53.486Z,27.00
2019-02-21T02:05:33.880Z,23.67
2019-02-21T02:08:15.043Z,27.20
2019-02-21T02:10:56.199Z,22.70
2019-02-21T02:13:37.223Z,26.37
2019-02-21T02:16:17.970Z,27.13
2019-02-21T02:18:58.721Z,24.13
2019-02-21T02:21:39.534Z,21.10
2019-02-21T02:24:20.118Z,23.07
2019-02-21T02:27:00.920Z,25.17
2019-02-21T02:29:41.844Z,25.80
2019-02-21T02:32:22.550Z,29.07
2019-02-21T02:35:03.675Z,23.47
2019-02-21T02:37:44.913Z,25.97
2019-02-21T02:40:25.372Z,21.90
2019-02-21T02:43:06.051Z,18.37
2019-02-21T02:45:46.707Z,20.67
2019-02-21T02:48:27.251Z,18.60
2019-02-21T02:51:07.931Z,21.30
2019-02-21T02:53:48.977Z,21.50
2019-02-21T02:56:29.847Z,21.10
2019-02-21T02:59:11.014Z,23.47
2019-02-21T03:01:51.955Z,21.23
2019-02-21T03:04:32.864Z,22.57
2019-02-21T03:07:13.447Z,22.40
2019-02-21T03:09:54.089Z,25.00
2019-02-21T03:12:34.698Z,21.67
2019-02-21T03:15:15.544Z,24.77
2019-02-21T03:17:55.857Z,26.27
2019-02-21T03:20:36.691Z,21.27
2019-02-21T03:23:17.449Z,22.53
2019-02-21T03:25:58.643Z,25.47
2019-02-21T03:28:39.399Z,25.77
2019-02-21T03:31:20.647Z,19.73
2019-02-21T03:34:01.233Z,19.83
2019-02-21T03:36:41.932Z,26.83
2019-02-21T03:39:22.789Z,23.10
2019-02-21T03:42:03.395Z,23.70
2019-02-21T03:44:43.895Z,24.33
2019-02-21T03:47:24.867Z,22.60
2019-02-21T03:50:05.188Z,25.90
2019-02-21T03:52:46.125Z,21.00
2019-02-21T03:55:26.774Z,25.07
2019-02-21T03:58:07.839Z,21.73
2019-02-21T04:00:49.078Z,24.87
2019-02-21T04:03:29.688Z,21.87
2019-02-21T04:06:10.455Z,22.97
2019-02-21T04:08:51.330Z,25.53
2019-02-21T04:11:31.964Z,23.20
2019-02-21T04:14:12.291Z,23.23
2019-02-21T04:16:52.731Z,28.17
2019-02-21T04:19:33.487Z,24.90
2019-02-21T04:22:13.959Z,22.83
2019-02-21T04:24:54.641Z,24.93
2019-02-21T04:27:35.038Z,26.53
2019-02-21T04:30:15.648Z,24.10
2019-02-21T04:32:56.219Z,24.47
2019-02-21T04:35:37.438Z,21.67
2019-02-21T04:38:17.862Z,21.60
2019-02-21T04:40:58.366Z,22.97
2019-02-21T04:43:39.023Z,29.73
2019-02-21T04:46:19.711Z,19.63
2019-02-21T04:49:00.316Z,26.10
2019-02-21T04:51:41.253Z,29.53
2019-02-21T04:54:21.842Z,29.07
2019-02-21T04:57:02.141Z,23.20
2019-02-21T04:59:42.595Z,23.97
2019-02-21T05:02:29.171Z,24.47
2019-02-21T05:05:05.847Z,25.20
2019-02-21T05:07:46.407Z,23.77
2019-02-21T05:10:26.959Z,21.77
2019-02-21T05:13:07.435Z,20.73
2019-02-21T05:15:47.812Z,24.77
2019-02-21T05:18:28.750Z,23.53
2019-02-21T05:21:09.774Z,21.23
2019-02-21T05:23:50.690Z,22.13
2019-02-21T05:26:36.619Z,23.40
2019-02-21T05:29:17.031Z,20.47
2019-02-21T05:32:16.996Z,21.40
2019-02-21T05:35:19.481Z,22.43
2019-02-21T05:38:19.644Z,20.43
2019-02-21T05:41:19.023Z,19.57
2019-02-21T05:44:19.094Z,27.80
2019-02-21T05:47:12.176Z,18.47
2019-02-21T05:50:11.734Z,20.63
2019-02-21T05:52:58.958Z,25.07
2019-02-21T05:55:50.507Z,21.13
2019-02-21T05:58:56.732Z,20.77
2019-02-21T06:01:44.670Z,21.00
2019-02-21T06:04:44.304Z,20.10
2019-02-21T06:07:39.090Z,23.60
2019-02-21T06:10:26.228Z,24.87
2019-02-21T06:13:18.699Z,25.50
2019-02-21T06:16:18.436Z,26.00
2019-02-21T06:19:18.033Z,19.00
2019-02-21T06:22:11.360Z,21.27
2019-02-21T06:25:01.176Z,21.50
2019-02-21T06:27:47.524Z,26.07
2019-02-21T06:30:47.823Z,23.50
2019-02-21T06:33:28.430Z,21.80
2019-02-21T06:36:09.071Z,21.93
2019-02-21T06:38:49.374Z,23.70
2019-02-21T06:41:30.463Z,20.80
2019-02-21T06:44:11.083Z,21.00
2019-02-21T06:46:52.197Z,24.53
2019-02-21T06:49:33.220Z,24.87
2019-02-21T06:52:15.641Z,22.70
2019-02-21T06:54:57.046Z,20.33
2019-02-21T06:57:37.726Z,20.70
2019-02-21T07:00:18.370Z,21.27
2019-02-21T07:02:59.475Z,20.00
2019-02-21T07:05:40.111Z,23.50
2019-02-21T07:08:20.776Z,18.90
2019-02-21T07:11:06.159Z,25.80
2019-02-21T07:13:44.651Z,22.00
2019-02-21T07:16:25.278Z,20.43
2019-02-21T07:19:06.520Z,16.50
2019-02-21T07:21:47.418Z,19.57
2019-02-21T07:24:28.556Z,19.10
2019-02-21T07:27:09.432Z,23.43
2019-02-21T07:29:49.859Z,21.23
2019-02-21T07:32:31.047Z,18.50
2019-02-21T07:35:11.943Z,18.90
2019-02-21T07:37:52.862Z,19.27
2019-02-21T07:40:33.515Z,20.43
2019-02-21T07:43:14.347Z,19.03
2019-02-21T07:45:54.956Z,19.30
2019-02-21T07:48:36.477Z,27.40
2019-02-21T07:51:17.843Z,24.17
2019-02-21T07:53:58.557Z,20.67
2019-02-21T07:56:41.907Z,24.53
2019-02-21T07:59:21.535Z,19.17
2019-02-21T08:02:02.080Z,17.80
2019-02-21T08:04:42.681Z,21.37
2019-02-21T08:07:23.175Z,19.87
2019-02-21T08:10:03.615Z,15.43
2019-02-21T08:12:44.941Z,18.67
2019-02-21T08:15:27.769Z,15.10
2019-02-21T08:18:08.760Z,20.53
2019-02-21T08:20:49.669Z,15.67
2019-02-21T08:23:32.435Z,16.00
2019-02-21T08:26:13.293Z,22.50
2019-02-21T08:28:53.744Z,20.60
2019-02-21T08:31:34.842Z,25.50
2019-02-21T08:34:22.544Z,17.57
2019-02-21T08:37:03.889Z,17.63
2019-02-21T08:39:33.091Z,18.67
2019-02-21T08:42:21.108Z,17.33
2019-02-21T08:45:09.170Z,14.30
2019-02-21T08:47:57.151Z,16.30
2019-02-21T08:50:45.463Z,14.90
2019-02-21T08:53:33.443Z,16.10
2019-02-21T08:59:15.419Z,19.10
2019-02-21T09:02:05.100Z,19.13
2019-02-21T09:04:53.859Z,17.33
2019-02-21T09:10:36.718Z,16.43
2019-02-21T09:13:24.690Z,16.40
2019-02-21T09:16:12.694Z,15.87
2019-02-21T09:19:00.927Z,16.97
2019-02-21T09:21:49.174Z,18.80
2019-02-21T09:24:38.464Z,15.97
2019-02-21T09:27:11.931Z,18.70
2019-02-21T09:29:52.938Z,18.70
2019-02-21T09:32:33.365Z,18.80
2019-02-21T09:35:14.107Z,15.07
2019-02-21T09:37:55.151Z,19.83
2019-02-21T09:40:35.655Z,20.23
2019-02-21T09:43:16.598Z,18.83
2019-02-21T09:45:57.378Z,20.87
2019-02-21T09:48:38.240Z,26.33
2019-02-21T09:51:19.862Z,23.37
2019-02-21T09:54:00.430Z,22.73
2019-02-21T09:56:52.049Z,18.70
2019-02-21T09:59:24.120Z,21.23
2019-02-21T10:02:04.935Z,27.40
2019-02-21T10:04:45.811Z,27.60
2019-02-21T10:07:26.157Z,22.67
2019-02-21T10:10:08.196Z,24.50
2019-02-21T10:12:48.904Z,30.73
2019-02-21T10:15:31.502Z,23.07
2019-02-21T10:18:12.976Z,24.63
2019-02-21T10:20:53.917Z,23.77
2019-02-21T10:23:34.742Z,23.03
2019-02-21T10:26:15.066Z,18.00
2019-02-21T10:28:56.154Z,21.20
2019-02-21T10:31:36.758Z,20.80
2019-02-21T10:34:17.555Z,19.47
2019-02-21T10:36:58.607Z,19.40
2019-02-21T10:39:39.588Z,16.03
2019-02-21T10:42:20.666Z,15.33
2019-02-21T10:45:03.501Z,14.57
2019-02-21T10:47:44.678Z,13.03
2019-02-21T10:50:26.084Z,16.00
2019-02-21T10:53:07.107Z,11.03
2019-02-21T10:55:48.210Z,14.50
2019-02-21T10:58:28.916Z,13.83
2019-02-21T11:01:09.588Z,15.27
2019-02-21T11:03:49.934Z,11.37
2019-02-21T11:06:30.582Z,14.23
2019-02-21T11:09:14.648Z,13.70
2019-02-21T11:11:55.152Z,11.73
2019-02-21T11:14:46.959Z,11.83
2019-02-21T11:17:18.979Z,13.43
2019-02-21T11:20:00.337Z,12.90
2019-02-21T11:22:41.155Z,13.83
2019-02-21T11:25:21.956Z,16.30
2019-02-21T11:28:02.796Z,14.33
2019-02-21T11:30:43.606Z,15.87
2019-02-21T11:33:24.388Z,12.17
2019-02-21T11:36:05.342Z,13.90
2019-02-21T11:38:46.145Z,12.80
2019-02-21T11:41:27.158Z,13.70
2019-02-21T11:44:08.540Z,14.00
2019-02-21T11:46:49.205Z,15.40
2019-02-21T11:49:29.982Z,15.33
2019-02-21T11:52:10.876Z,16.20
2019-02-21T11:54:51.903Z,13.50
2019-02-21T11:57:32.766Z,14.63
2019-02-21T12:00:14.274Z,13.83
2019-02-21T12:02:55.143Z,18.00
2019-02-21T12:05:36.196Z,15.40
2019-02-21T12:08:17.054Z,15.10
2019-02-21T12:10:45.937Z,16.10
2019-02-21T12:13:33.921Z,19.03
2019-02-21T12:16:21.899Z,16.07
2019-02-21T12:19:09.969Z,20.23
2019-02-21T12:21:59.308Z,18.80
2019-02-21T12:24:41.160Z,16.93
2019-02-21T12:27:21.688Z,20.93
2019-02-21T12:30:02.760Z,16.97
2019-02-21T12:32:43.394Z,23.13
2019-02-21T12:35:29.561Z,22.43
2019-02-21T12:38:06.796Z,21.53
2019-02-21T12:40:47.538Z,18.90
2019-02-21T12:43:28.347Z,19.60
2019-02-21T12:46:08.936Z,18.23
2019-02-21T12:48:49.540Z,19.40
2019-02-21T12:51:30.114Z,19.50
2019-02-21T12:54:10.983Z,17.77
2019-02-21T12:56:51.703Z,15.57
2019-02-21T12:59:32.619Z,17.40
2019-02-21T13:02:13.736Z,19.97
2019-02-21T13:04:54.296Z,20.13
2019-02-21T13:07:35.052Z,18.57
2019-02-21T13:10:16.237Z,20.83
2019-02-21T13:12:57.091Z,16.43
2019-02-21T13:15:37.723Z,20.30
2019-02-21T13:18:18.322Z,17.40
2019-02-21T13:20:59.087Z,21.23
2019-02-21T13:23:39.459Z,18.67
2019-02-21T13:26:20.026Z,20.20
2019-02-21T13:29:00.448Z,17.57
2019-02-21T13:31:41.563Z,19.73
2019-02-21T13:34:22.315Z,16.83
2019-02-21T13:37:02.993Z,20.93
2019-02-21T13:39:43.823Z,23.53
2019-02-21T13:42:24.731Z,18.73
2019-02-21T13:45:05.463Z,19.70
2019-02-21T13:47:46.532Z,24.40
2019-02-21T13:50:27.087Z,22.13
2019-02-21T13:53:07.876Z,22.00
2019-02-21T13:55:50.927Z,18.87
2019-02-21T13:58:31.507Z,23.43
2019-02-21T14:01:14.358Z,20.20
2019-02-21T14:03:56.666Z,20.07
2019-02-21T14:06:37.812Z,21.47
2019-02-21T14:09:18.306Z,22.80
2019-02-21T14:11:59.135Z,22.20
2019-02-21T14:14:39.575Z,21.60
2019-02-21T14:17:20.446Z,25.57
2019-02-21T14:20:01.073Z,20.60
2019-02-21T14:22:41.622Z,22.80
2019-02-21T14:25:22.406Z,19.73
2019-02-21T14:28:03.591Z,27.30
2019-02-21T14:30:44.440Z,21.40
2019-02-21T14:33:24.982Z,26.17
2019-02-21T14:36:15.145Z,24.90
2019-02-21T14:38:48.504Z,26.87
2019-02-21T14:41:29.453Z,29.60
2019-02-21T14:44:10.632Z,28.20
2019-02-21T14:46:52.101Z,24.23
2019-02-21T14:49:32.628Z,23.13
2019-02-21T14:52:13.410Z,23.60
2019-02-21T14:54:54.195Z,25.13
2019-02-21T14:57:41.029Z,22.20
2019-02-21T15:00:17.920Z,26.67
2019-02-21T15:02:58.536Z,28.43
2019-02-21T15:05:39.287Z,26.80
2019-02-21T15:08:22.096Z,24.43
2019-02-21T15:11:03.167Z,24.57
2019-02-21T15:13:44.100Z,25.30
2019-02-21T15:16:25.355Z,25.80
2019-02-21T15:19:05.914Z,24.93
2019-02-21T15:21:46.612Z,29.97
2019-02-21T15:24:27.138Z,28.93
2019-02-21T15:27:08.901Z,28.33
2019-02-21T15:29:49.727Z,24.70
2019-02-21T15:32:30.495Z,26.27
2019-02-21T15:35:11.277Z,23.63
2019-02-21T15:37:52.654Z,26.33
2019-02-21T15:40:33.878Z,26.60
2019-02-21T15:43:14.377Z,25.33
2019-02-21T15:45:55.128Z,25.90
2019-02-21T15:48:35.750Z,32.83
2019-02-21T15:51:16.716Z,27.00
2019-02-21T15:53:57.512Z,29.27
2019-02-21T15:56:38.338Z,30.83
2019-02-21T15:59:18.956Z,26.30
2019-02-21T16:01:59.539Z,29.67
2019-02-21T16:04:40.030Z,29.80
2019-02-21T16:07:20.867Z,28.80
2019-02-21T16:10:02.460Z,27.60
2019-02-21T16:12:44.269Z,33.53
2019-02-21T16:15:25.238Z,33.37
2019-02-21T16:18:06.235Z,36.47
2019-02-21T16:20:47.064Z,37.53
2019-02-21T16:23:28.283Z,36.70
2019-02-21T16:26:09.396Z,36.63
2019-02-21T16:28:50.460Z,40.27
2019-02-21T16:31:31.265Z,40.77
2019-02-21T16:34:12.383Z,44.13
2019-02-21T16:37:02.034Z,46.13
2019-02-21T16:39:36.183Z,37.53
2019-02-21T16:42:16.762Z,44.83
2019-02-21T16:44:57.190Z,45.50
2019-02-21T16:47:37.736Z,42.40
2019-02-21T16:50:28.820Z,42.73
2019-02-21T16:53:01.032Z,40.63
2019-02-21T16:55:41.794Z,41.97
2019-02-21T16:58:22.874Z,40.63
2019-02-21T17:01:03.411Z,44.63
2019-02-21T17:03:44.046Z,45.40
2019-02-21T17:06:24.926Z,40.00
2019-02-21T17:09:06.179Z,38.47
2019-02-21T17:11:46.959Z,36.37
2019-02-21T17:14:27.467Z,41.73
2019-02-21T17:17:08.275Z,34.63
2019-02-21T17:19:48.695Z,38.17
2019-02-21T17:22:29.332Z,40.13
2019-02-21T17:25:10.546Z,35.50
2019-02-21T17:27:51.761Z,35.03
2019-02-21T17:30:33.004Z,39.50
2019-02-21T17:33:13.439Z,38.17
2019-02-21T17:35:54.345Z,35.80
2019-02-21T17:38:35.411Z,35.70
2019-02-21T17:41:16.945Z,34.57
2019-02-21T17:43:57.898Z,34.40
2019-02-21T17:46:39.413Z,30.50
2019-02-21T17:49:21.254Z,35.60
2019-02-21T17:52:02.096Z,31.33
2019-02-21T17:54:42.629Z,37.07
2019-02-21T17:57:23.174Z,28.07
2019-02-21T18:00:04.132Z,31.77
2019-02-21T18:02:44.507Z,32.53
2019-02-21T18:05:25.094Z,34.90
2019-02-21T18:08:06.103Z,35.73
2019-02-21T18:10:46.527Z,31.23
2019-02-21T18:13:27.327Z,34.20
2019-02-21T18:16:08.065Z,32.30
2019-02-21T18:18:48.940Z,37.37
2019-02-21T18:21:30.498Z,36.87
2019-02-21T18:24:11.189Z,32.77
2019-02-21T18:26:52.261Z,31.50
2019-02-21T18:29:32.968Z,34.20
2019-02-21T18:32:14.151Z,36.10
2019-02-21T18:34:54.442Z,40.63
2019-02-21T18:37:34.842Z,36.90
2019-02-21T18:40:18.544Z,45.03
2019-02-21T18:42:58.342Z,38.30
2019-02-21T18:45:39.223Z,34.77
2019-02-21T18:48:19.924Z,35.30
2019-02-21T18:51:00.802Z,38.47
2019-02-21T18:53:41.776Z,38.67
2019-02-21T18:56:22.183Z,43.87
2019-02-21T18:59:03.221Z,38.50
2019-02-21T19:01:44.418Z,40.93
2019-02-21T19:04:25.247Z,42.83
2019-02-21T19:07:06.545Z,40.93
2019-02-21T19:09:47.583Z,42.97
2019-02-21T19:12:27.914Z,51.47
2019-02-21T19:15:08.548Z,40.07
2019-02-21T19:17:49.843Z,37.10
2019-02-21T19:20:30.712Z,40.73
2019-02-21T19:23:11.574Z,42.80
2019-02-21T19:25:52.479Z,45.00
2019-02-21T19:28:33.091Z,44.63
2019-02-21T19:31:14.906Z,44.47
2019-02-21T19:33:56.347Z,46.00
2019-02-21T19:36:37.094Z,47.37
2019-02-21T19:39:17.723Z,46.00
2019-02-21T19:41:59.880Z,44.77
2019-02-21T19:44:41.209Z,45.07
2019-02-21T19:47:22.356Z,41.90
2019-02-21T19:50:02.850Z,48.93
2019-02-21T19:52:44.267Z,46.67
2019-02-21T19:55:25.270Z,46.67
2019-02-21T19:58:05.831Z,48.90
2019-02-21T20:00:46.794Z,42.83
2019-02-21T20:03:27.147Z,48.40
2019-02-21T20:06:07.472Z,42.70
2019-02-21T20:08:47.997Z,43.23
2019-02-21T20:11:28.738Z,46.03
2019-02-21T20:14:09.522Z,54.53
2019-02-21T20:16:50.021Z,41.70
2019-02-21T20:19:30.625Z,48.03
2019-02-21T20:22:11.578Z,45.57
2019-02-21T20:24:51.909Z,39.40
2019-02-21T20:27:32.751Z,52.10
2019-02-21T20:30:13.611Z,40.30
2019-02-21T20:32:55.079Z,50.93
2019-02-21T20:35:36.300Z,44.43
2019-02-21T20:38:17.348Z,44.20
2019-02-21T20:40:58.590Z,41.97
2019-02-21T20:43:39.101Z,41.67
2019-02-21T20:46:19.986Z,46.47
2019-02-21T20:49:00.658Z,46.93
2019-02-21T20:51:41.385Z,43.73
2019-02-21T20:54:22.083Z,44.63
2019-02-21T20:57:03.145Z,44.50
2019-02-21T20:59:43.613Z,50.50
2019-02-21T21:02:24.515Z,47.17
2019-02-21T21:05:04.819Z,45.33
2019-02-21T21:07:45.300Z,49.63
2019-02-21T21:10:25.933Z,45.47
2019-02-21T21:13:06.602Z,46.30
2019-02-21T21:15:48.131Z,47.90
2019-02-21T21:18:28.571Z,47.63
2019-02-21T21:21:09.744Z,51.67
2019-02-21T21:23:51.225Z,51.40
2019-02-21T21:26:31.538Z,50.90
2019-02-21T21:29:12.203Z,51.77
2019-02-21T21:31:52.789Z,44.53
2019-02-21T21:34:34.004Z,47.13
2019-02-21T21:37:14.363Z,46.70
2019-02-21T21:39:54.806Z,55.00
2019-02-21T21:42:35.219Z,56.07
2019-02-21T21:45:16.169Z,51.57
2019-02-21T21:47:57.429Z,49.70
2019-02-21T21:50:38.765Z,50.10
2019-02-21T21:53:19.837Z,52.47
2019-02-21T21:56:01.083Z,55.67
2019-02-21T21:58:41.459Z,54.60
2019-02-21T22:01:22.123Z,66.33
2019-02-21T22:04:02.521Z,60.27
2019-02-21T22:06:43.634Z,54.83
2019-02-21T22:09:24.291Z,58.30
2019-02-21T22:12:05.603Z,56.17
2019-02-21T22:14:46.178Z,57.43
2019-02-21T22:17:26.991Z,58.27
2019-02-21T22:20:07.943Z,55.07
2019-02-21T22:22:48.512Z,62.27
2019-02-21T22:25:29.757Z,60.30
2019-02-21T22:28:10.447Z,60.73
2019-02-21T22:30:51.543Z,56.37
2019-02-21T22:33:32.275Z,57.23
2019-02-21T22:36:13.479Z,57.77
2019-02-21T22:38:54.446Z,53.83
2019-02-21T22:41:35.332Z,60.00
2019-02-21T22:44:15.867Z,60.57
2019-02-21T22:46:44.847Z,70.63
2019-02-21T22:49:16.525Z,69.43
2019-02-21T22:51:44.619Z,61.60
2019-02-21T22:54:32.605Z,63.87
2019-02-21T22:57:20.589Z,66.10
2019-02-21T23:00:29.457Z,66.67
2019-02-21T23:03:17.728Z,63.10
2019-02-21T23:06:26.507Z,61.20
2019-02-21T23:09:33.837Z,69.60
2019-02-21T23:12:21.833Z,63.93
2019-02-21T23:15:10.096Z,65.93
2019-02-21T23:17:58.138Z,64.63
2019-02-21T23:20:46.116Z,69.60
2019-02-21T23:23:34.142Z,67.73
2019-02-21T23:26:22.406Z,75.17
2019-02-21T23:29:10.396Z,62.33
2019-02-21T23:31:58.382Z,62.20
2019-02-21T23:34:46.383Z,52.83
2019-02-21T23:37:34.362Z,51.73
2019-02-21T23:40:22.531Z,47.07
2019-02-21T23:43:10.847Z,47.40
2019-02-21T23:45:58.850Z,42.10
2019-02-21T23:48:46.845Z,41.77
2019-02-21T23:51:34.826Z,41.40
2019-02-21T23:54:22.907Z,36.03
2019-02-21T23:57:12.813Z,34.30
